Skelton, Minnesota
Current Conditions -  °F | °C
As of 3:13 PM on Saturday 22 Nov 2014 (Local Time) from KMZH Reporting Station
Haze Haze  
Wind Chill: 29°   Ceiling: 1000
Heat Index: 34°   Visibility: 5mi
Dew Point: 32°   Wind: 6mph
Humidity: 93%   Direction: 170°S
Pressure: 29.61"   Gusts: NA
Location:  46.5379°N, 92.621°W
Report Text: KMZH 222113Z AUTO 17005KT 5SM BR OVC010 01/00 A2961 RMK AO2
Loading
Personal Weather Stations






























Interactive Weather Map New forecast layout! Learn more

10-Day Weather Forecast

Advertisements
Track Severe Weather on mobile